createdAt,value
2018-04-30T00:00:05.016Z,5.42
2018-04-30T00:01:05.491Z,5.39
2018-04-30T00:02:05.962Z,5.39
2018-04-30T00:03:06.437Z,5.38
2018-04-30T00:04:06.908Z,5.36
2018-04-30T00:05:07.383Z,5.34
2018-04-30T00:06:07.856Z,5.34
2018-04-30T00:07:08.328Z,5.34
2018-04-30T00:08:08.808Z,5.32
2018-04-30T00:09:09.276Z,5.32
2018-04-30T00:10:09.748Z,5.30
2018-04-30T00:11:10.224Z,5.30
2018-04-30T00:12:10.697Z,5.28
2018-04-30T00:13:11.170Z,5.28
2018-04-30T00:14:11.642Z,5.27
2018-04-30T00:15:12.120Z,5.26
2018-04-30T00:16:12.591Z,5.25
2018-04-30T00:17:13.067Z,5.24
2018-04-30T00:18:13.540Z,5.23
2018-04-30T00:19:14.015Z,5.24
2018-04-30T00:20:14.488Z,5.22
2018-04-30T00:21:14.963Z,5.20
2018-04-30T00:22:15.438Z,5.20
2018-04-30T00:23:15.910Z,5.17
2018-04-30T00:24:16.386Z,5.17
2018-04-30T00:25:16.859Z,5.16
2018-04-30T00:26:17.335Z,5.16
2018-04-30T00:27:17.809Z,5.15
2018-04-30T00:28:18.283Z,5.14
2018-04-30T00:29:18.755Z,5.14
2018-04-30T00:30:19.230Z,5.14
2018-04-30T00:31:19.704Z,5.12
2018-04-30T00:32:20.176Z,5.11
2018-04-30T00:33:20.653Z,5.12
2018-04-30T00:34:21.175Z,5.11
2018-04-30T00:35:21.601Z,5.08
2018-04-30T00:36:22.068Z,5.07
2018-04-30T00:37:22.541Z,5.08
2018-04-30T00:38:23.014Z,5.08
2018-04-30T00:39:23.485Z,5.06
2018-04-30T00:40:23.957Z,5.04
2018-04-30T00:41:24.430Z,5.04
2018-04-30T00:42:24.904Z,5.04
2018-04-30T00:43:25.372Z,5.02
2018-04-30T00:44:25.843Z,5.02
2018-04-30T00:45:26.314Z,5.00
2018-04-30T00:46:26.788Z,4.99
2018-04-30T00:47:27.255Z,4.98
2018-04-30T00:48:27.725Z,4.98
2018-04-30T00:49:28.196Z,4.96
2018-04-30T00:50:28.667Z,4.96
2018-04-30T00:51:29.137Z,4.96
2018-04-30T00:52:29.607Z,4.95
2018-04-30T00:53:30.081Z,4.94
2018-04-30T00:54:30.549Z,4.92
2018-04-30T00:55:31.021Z,4.92
2018-04-30T00:56:31.488Z,4.90
2018-04-30T00:57:31.966Z,4.90
2018-04-30T00:58:32.430Z,4.89
2018-04-30T00:59:32.950Z,4.88
2018-04-30T01:00:33.369Z,4.88
2018-04-30T01:01:33.841Z,4.86
2018-04-30T01:02:34.311Z,4.86
2018-04-30T01:03:34.820Z,4.85
2018-04-30T01:04:35.252Z,4.82
2018-04-30T01:05:35.724Z,4.82
2018-04-30T01:06:36.195Z,4.80
2018-04-30T01:07:36.666Z,4.80
2018-04-30T01:08:37.135Z,4.80
2018-04-30T01:09:37.660Z,4.78
2018-04-30T01:10:38.079Z,4.76
2018-04-30T01:11:38.550Z,4.75
2018-04-30T01:12:39.022Z,4.75
2018-04-30T01:13:39.492Z,4.74
2018-04-30T01:14:40.021Z,4.74
2018-04-30T01:15:40.437Z,4.73
2018-04-30T01:16:40.908Z,4.72
2018-04-30T01:17:41.380Z,4.72
2018-04-30T01:18:41.853Z,4.71
2018-04-30T01:19:42.324Z,4.70
2018-04-30T01:20:42.796Z,4.70
2018-04-30T01:21:43.318Z,4.69
2018-04-30T01:22:43.741Z,4.68
2018-04-30T01:23:44.214Z,4.68
2018-04-30T01:24:44.687Z,4.68
2018-04-30T01:25:45.160Z,4.67
2018-04-30T01:26:45.634Z,4.66
2018-04-30T01:27:46.105Z,4.66
2018-04-30T01:28:46.578Z,4.66
2018-04-30T01:29:47.051Z,4.64
2018-04-30T01:30:47.529Z,4.63
2018-04-30T01:31:47.999Z,4.62
2018-04-30T01:32:48.472Z,4.61
2018-04-30T01:33:48.946Z,4.61
2018-04-30T01:34:49.418Z,4.60
2018-04-30T01:35:49.891Z,4.58
2018-04-30T01:36:50.704Z,4.57
2018-04-30T01:37:50.839Z,4.56
2018-04-30T01:38:51.312Z,4.55
2018-04-30T01:39:51.789Z,4.56
2018-04-30T01:40:52.263Z,4.53
2018-04-30T01:41:52.733Z,4.52
2018-04-30T01:42:53.207Z,4.52
2018-04-30T01:43:53.681Z,4.50
2018-04-30T01:44:54.205Z,4.48
2018-04-30T01:45:54.629Z,4.48
2018-04-30T01:46:55.104Z,4.46
2018-04-30T01:47:55.577Z,4.44
2018-04-30T01:48:56.055Z,4.44
2018-04-30T01:49:56.525Z,4.42
2018-04-30T01:50:57.001Z,4.42
2018-04-30T01:51:57.475Z,4.40
2018-04-30T01:52:57.949Z,4.40
2018-04-30T01:53:58.427Z,4.38
2018-04-30T01:54:58.897Z,4.37
2018-04-30T01:56:59.846Z,4.37
2018-04-30T01:58:00.319Z,4.34
2018-04-30T01:59:00.793Z,4.34
2018-04-30T02:00:01.268Z,4.32
2018-04-30T02:01:01.743Z,4.32
2018-04-30T02:02:02.214Z,4.30
2018-04-30T02:03:02.690Z,4.30
2018-04-30T02:04:03.160Z,4.29
2018-04-30T02:05:03.634Z,4.28
2018-04-30T02:06:04.105Z,4.27
2018-04-30T02:07:04.581Z,4.25
2018-04-30T02:08:05.053Z,4.26
2018-04-30T02:09:05.522Z,4.24
2018-04-30T02:10:05.997Z,4.22
2018-04-30T02:11:06.466Z,4.22
2018-04-30T02:12:06.940Z,4.20
2018-04-30T02:13:07.410Z,4.20
2018-04-30T02:14:07.885Z,4.20
2018-04-30T02:15:08.353Z,4.18
2018-04-30T02:16:08.822Z,4.16
2018-04-30T02:17:09.295Z,4.15
2018-04-30T02:18:09.765Z,4.14
2018-04-30T02:19:10.233Z,4.14
2018-04-30T02:20:10.705Z,4.13
2018-04-30T02:21:11.211Z,4.14
2018-04-30T02:22:11.644Z,4.11
2018-04-30T02:23:12.114Z,4.10
2018-04-30T02:24:12.586Z,4.10
2018-04-30T02:25:13.057Z,4.08
2018-04-30T02:26:13.525Z,4.07
2018-04-30T02:27:13.995Z,4.06
2018-04-30T02:28:14.466Z,4.06
2018-04-30T02:29:14.938Z,4.04
2018-04-30T02:30:15.407Z,4.04
2018-04-30T02:31:15.880Z,4.03
2018-04-30T02:32:16.347Z,4.02
2018-04-30T02:33:16.818Z,4.02
2018-04-30T02:34:17.288Z,4.02
2018-04-30T02:35:17.809Z,4.00
2018-04-30T02:36:18.228Z,3.99
2018-04-30T02:37:18.699Z,3.98
2018-04-30T02:38:19.171Z,3.97
2018-04-30T02:39:19.640Z,3.96
2018-04-30T02:40:20.113Z,3.96
2018-04-30T02:41:20.584Z,3.94
2018-04-30T02:42:21.056Z,3.94
2018-04-30T02:43:21.525Z,3.95
2018-04-30T02:44:21.999Z,3.92
2018-04-30T02:45:22.466Z,3.90
2018-04-30T02:46:22.941Z,3.92
2018-04-30T02:47:23.410Z,3.90
2018-04-30T02:48:23.882Z,3.91
2018-04-30T02:49:24.354Z,3.88
2018-04-30T02:50:24.827Z,3.86
2018-04-30T02:51:25.298Z,3.84
2018-04-30T02:52:25.769Z,3.85
2018-04-30T02:53:26.240Z,3.86
2018-04-30T03:00:29.597Z,3.82
2018-04-30T03:01:30.019Z,3.81
2018-04-30T03:02:30.492Z,3.82
2018-04-30T03:03:30.965Z,3.80
2018-04-30T03:04:31.444Z,3.80
2018-04-30T03:05:31.911Z,3.78
2018-04-30T03:06:32.383Z,3.78
2018-04-30T03:07:32.856Z,3.77
2018-04-30T03:08:33.329Z,3.77
2018-04-30T03:09:33.805Z,3.78
2018-04-30T03:10:34.325Z,3.76
2018-04-30T03:11:34.749Z,3.78
2018-04-30T03:12:35.562Z,3.77
2018-04-30T03:13:35.698Z,3.74
2018-04-30T03:14:36.175Z,3.76
2018-04-30T03:15:36.641Z,3.75
2018-04-30T03:16:37.191Z,3.76
2018-04-30T03:17:37.590Z,3.74
2018-04-30T03:18:38.064Z,3.72
2018-04-30T03:19:38.574Z,3.72
2018-04-30T03:20:39.011Z,3.74
2018-04-30T03:21:39.482Z,3.74
2018-04-30T03:22:40.297Z,3.71
2018-04-30T03:23:40.432Z,3.70
2018-04-30T03:24:40.904Z,3.72
2018-04-30T03:25:41.378Z,3.72
2018-04-30T03:26:41.850Z,3.70
2018-04-30T03:27:42.325Z,3.69
2018-04-30T03:28:42.799Z,3.71
2018-04-30T03:29:43.275Z,3.68
2018-04-30T03:30:43.746Z,3.68
2018-04-30T03:31:44.221Z,3.70
2018-04-30T03:32:44.701Z,3.68
2018-04-30T03:33:45.167Z,3.68
2018-04-30T03:34:45.645Z,3.66
2018-04-30T03:35:46.119Z,3.68
2018-04-30T03:36:46.593Z,3.67
2018-04-30T03:37:47.405Z,3.67
2018-04-30T03:38:47.537Z,3.66
2018-04-30T03:39:48.353Z,3.66
2018-04-30T03:40:48.492Z,3.64
2018-04-30T03:41:48.961Z,3.66
2018-04-30T03:42:49.435Z,3.64
2018-04-30T03:43:49.910Z,3.62
2018-04-30T03:44:50.384Z,3.62
2018-04-30T03:45:50.857Z,3.64
2018-04-30T03:46:51.333Z,3.62
2018-04-30T03:47:51.806Z,3.62
2018-04-30T03:48:52.282Z,3.63
2018-04-30T03:49:52.752Z,3.64
2018-04-30T03:50:53.233Z,3.60
2018-04-30T03:51:53.701Z,3.61
2018-04-30T03:52:54.515Z,3.59
2018-04-30T03:53:54.645Z,3.61
2018-04-30T03:54:55.120Z,3.62
2018-04-30T03:55:55.594Z,3.62
2018-04-30T03:56:56.065Z,3.58
2018-04-30T03:57:56.573Z,3.59
2018-04-30T03:58:57.008Z,3.58
2018-04-30T03:59:57.479Z,3.59
2018-04-30T04:00:58.292Z,3.60
2018-04-30T04:01:58.426Z,3.58
2018-04-30T04:02:58.900Z,3.56
2018-04-30T04:03:59.364Z,3.60
2018-04-30T04:04:59.837Z,3.56
2018-04-30T04:06:00.305Z,3.56
2018-04-30T04:07:00.776Z,3.57
2018-04-30T04:08:01.587Z,3.58
2018-04-30T04:09:01.724Z,3.57
2018-04-30T04:10:02.187Z,3.56
2018-04-30T04:11:02.659Z,3.58
2018-04-30T04:12:03.129Z,3.51
2018-04-30T04:13:03.597Z,3.54
2018-04-30T04:14:04.068Z,3.54
2018-04-30T04:15:04.538Z,3.58
2018-04-30T04:16:05.061Z,3.55
2018-04-30T04:17:05.479Z,3.54
2018-04-30T04:18:05.954Z,3.55
2018-04-30T04:19:06.419Z,3.54
2018-04-30T04:20:06.889Z,3.54
2018-04-30T04:21:07.360Z,3.52
2018-04-30T04:22:07.829Z,3.52
2018-04-30T04:23:08.300Z,3.50
2018-04-30T04:24:08.770Z,3.48
2018-04-30T04:25:09.240Z,3.51
2018-04-30T04:26:09.713Z,3.51
2018-04-30T04:27:10.181Z,3.50
2018-04-30T04:28:10.652Z,3.48
2018-04-30T04:29:11.123Z,3.51
2018-04-30T04:30:11.593Z,3.50
2018-04-30T04:31:12.116Z,3.49
2018-04-30T04:32:12.536Z,3.48
2018-04-30T04:33:13.007Z,3.46
2018-04-30T04:34:13.481Z,3.46
2018-04-30T04:35:13.950Z,3.47
2018-04-30T04:36:14.420Z,3.46
2018-04-30T04:37:14.891Z,3.44
2018-04-30T04:38:15.363Z,3.48
2018-04-30T04:39:15.839Z,3.46
2018-04-30T04:40:16.307Z,3.44
2018-04-30T04:41:16.818Z,3.44
2018-04-30T04:42:17.250Z,3.44
2018-04-30T04:43:17.724Z,3.42
2018-04-30T04:44:18.195Z,3.42
2018-04-30T04:45:18.668Z,3.42
2018-04-30T04:46:19.138Z,3.40
2018-04-30T04:47:19.649Z,3.45
2018-04-30T04:48:20.083Z,3.42
2018-04-30T04:49:20.556Z,3.40
2018-04-30T04:50:21.031Z,3.40
2018-04-30T04:51:21.552Z,3.40
2018-04-30T04:52:21.976Z,3.42
2018-04-30T04:53:22.447Z,3.42
2018-04-30T04:54:22.923Z,3.40
2018-04-30T04:55:23.391Z,3.40
2018-04-30T04:56:23.865Z,3.40
2018-04-30T04:57:24.339Z,3.39
2018-04-30T04:58:24.811Z,3.37
2018-04-30T04:59:25.285Z,3.39
2018-04-30T05:00:25.756Z,3.37
2018-04-30T05:01:26.281Z,3.38
2018-04-30T05:02:26.823Z,3.38
2018-04-30T05:03:27.178Z,3.38
2018-04-30T05:04:27.651Z,3.36
2018-04-30T05:05:28.123Z,3.36
2018-04-30T05:06:28.635Z,3.36
2018-04-30T05:07:29.070Z,3.34
2018-04-30T05:08:29.544Z,3.35
2018-04-30T05:09:30.021Z,3.36
2018-04-30T05:10:30.528Z,3.34
2018-04-30T05:11:30.965Z,3.32
2018-04-30T05:12:31.438Z,3.31
2018-04-30T05:13:31.912Z,3.32
2018-04-30T05:14:32.423Z,3.30
2018-04-30T05:15:32.861Z,3.32
2018-04-30T05:16:33.385Z,3.31
2018-04-30T05:17:33.809Z,3.30
2018-04-30T05:18:34.621Z,3.30
2018-04-30T05:19:35.096Z,3.30
2018-04-30T05:20:35.228Z,3.27
2018-04-30T05:21:35.703Z,3.28
2018-04-30T05:22:36.176Z,3.26
2018-04-30T05:23:36.651Z,3.28
2018-04-30T05:24:37.124Z,3.26
2018-04-30T05:25:37.604Z,3.28
2018-04-30T05:26:38.074Z,3.26
2018-04-30T05:27:38.547Z,3.26
2018-04-30T05:28:39.020Z,3.24
2018-04-30T05:29:39.496Z,3.26
2018-04-30T05:30:39.969Z,3.24
2018-04-30T05:31:40.494Z,3.23
2018-04-30T05:32:40.918Z,3.24
2018-04-30T05:33:41.396Z,3.24
2018-04-30T05:34:41.904Z,3.22
2018-04-30T05:35:42.339Z,3.24
2018-04-30T05:36:42.868Z,3.20
2018-04-30T05:37:43.288Z,3.22
2018-04-30T05:38:43.761Z,3.19
2018-04-30T05:39:44.314Z,3.21
2018-04-30T05:40:44.709Z,3.21
2018-04-30T05:41:45.577Z,3.16
2018-04-30T05:42:45.655Z,3.19
2018-04-30T05:43:46.132Z,3.18
2018-04-30T05:44:46.606Z,3.17
2018-04-30T05:45:47.074Z,3.18
2018-04-30T05:46:47.546Z,3.20
2018-04-30T05:47:48.023Z,3.18
2018-04-30T05:48:48.491Z,3.18
2018-04-30T05:49:48.964Z,3.15
2018-04-30T05:50:49.434Z,3.16
2018-04-30T05:51:49.956Z,3.17
2018-04-30T05:52:50.377Z,3.14
2018-04-30T05:53:50.887Z,3.13
2018-04-30T05:54:51.661Z,3.14
2018-04-30T05:55:51.790Z,3.15
2018-04-30T05:56:52.311Z,3.14
2018-04-30T05:57:52.731Z,3.12
2018-04-30T05:58:53.200Z,3.14
2018-04-30T05:59:53.670Z,3.14
2018-04-30T06:00:54.141Z,3.10
2018-04-30T06:01:54.616Z,3.11
2018-04-30T06:02:55.081Z,3.14
2018-04-30T06:03:55.555Z,3.13
2018-04-30T06:04:56.023Z,3.11
2018-04-30T06:05:56.491Z,3.12
2018-04-30T06:06:57.012Z,3.12
2018-04-30T06:07:57.432Z,3.12
2018-04-30T06:08:57.901Z,3.10
2018-04-30T06:09:58.372Z,3.14
2018-04-30T06:10:58.841Z,3.12
2018-04-30T06:11:59.655Z,3.14
2018-04-30T06:12:59.783Z,3.12
2018-04-30T06:14:00.253Z,3.12
2018-04-30T06:15:00.721Z,3.10
2018-04-30T06:16:01.193Z,3.12
2018-04-30T06:17:01.664Z,3.16
2018-04-30T06:18:02.137Z,3.16
2018-04-30T06:19:02.606Z,3.14
2018-04-30T06:20:03.078Z,3.16
2018-04-30T06:21:03.547Z,3.20
2018-04-30T06:22:04.068Z,3.22
2018-04-30T06:23:04.489Z,3.20
2018-04-30T06:24:04.959Z,3.21
2018-04-30T06:25:05.432Z,3.24
2018-04-30T06:26:06.244Z,3.26
2018-04-30T06:27:06.376Z,3.24
2018-04-30T06:28:07.186Z,3.28
2018-04-30T06:29:07.355Z,3.32
2018-04-30T06:30:07.791Z,3.36
2018-04-30T06:31:08.299Z,3.36
2018-04-30T06:32:08.734Z,3.40
2018-04-30T06:33:09.206Z,3.42
2018-04-30T06:34:09.684Z,3.46
2018-04-30T06:35:10.150Z,3.47
2018-04-30T06:36:10.625Z,3.50
2018-04-30T06:37:11.151Z,3.56
2018-04-30T06:38:11.570Z,3.57
2018-04-30T06:39:12.041Z,3.59
2018-04-30T06:40:12.515Z,3.62
2018-04-30T06:41:12.990Z,3.64
2018-04-30T06:42:13.512Z,3.66
2018-04-30T06:43:13.934Z,3.72
2018-04-30T06:44:14.411Z,3.72
2018-04-30T06:45:14.881Z,3.76
2018-04-30T06:46:15.356Z,3.80
2018-04-30T06:47:15.878Z,3.84
2018-04-30T06:48:16.302Z,3.87
2018-04-30T06:49:16.777Z,3.91
2018-04-30T06:50:17.249Z,3.94
2018-04-30T06:51:17.727Z,3.96
2018-04-30T06:52:18.199Z,3.98
2018-04-30T06:53:18.672Z,4.02
2018-04-30T06:54:19.145Z,4.04
2018-04-30T06:55:19.619Z,4.08
2018-04-30T06:56:20.094Z,4.10
2018-04-30T06:57:20.569Z,4.13
2018-04-30T06:58:21.080Z,4.16
2018-04-30T06:59:21.860Z,4.18
2018-04-30T07:00:22.007Z,4.22
2018-04-30T07:01:22.467Z,4.25
2018-04-30T07:02:22.942Z,4.26
2018-04-30T07:03:23.416Z,4.30
2018-04-30T07:04:23.891Z,4.32
2018-04-30T07:05:24.365Z,4.34
2018-04-30T07:06:24.841Z,4.36
2018-04-30T07:07:25.313Z,4.38
2018-04-30T07:08:25.788Z,4.42
2018-04-30T07:09:26.410Z,4.44
2018-04-30T07:10:26.740Z,4.44
2018-04-30T07:11:27.210Z,4.47
2018-04-30T07:12:27.687Z,4.50
2018-04-30T07:13:28.161Z,4.52
2018-04-30T07:14:28.631Z,4.52
2018-04-30T07:15:29.104Z,4.54
2018-04-30T07:16:29.577Z,4.57
2018-04-30T07:17:30.105Z,4.60
2018-04-30T07:18:30.523Z,4.63
2018-04-30T07:19:30.996Z,4.64
2018-04-30T07:20:31.468Z,4.68
2018-04-30T07:21:31.941Z,4.72
2018-04-30T07:22:32.412Z,4.75
2018-04-30T07:23:32.882Z,4.78
2018-04-30T07:24:33.354Z,4.82
2018-04-30T07:25:33.828Z,4.86
2018-04-30T07:26:34.296Z,4.90
2018-04-30T07:27:34.854Z,4.92
2018-04-30T07:28:35.239Z,4.96
2018-04-30T07:29:35.716Z,5.00
2018-04-30T07:30:36.182Z,5.04
2018-04-30T07:31:36.651Z,5.08
2018-04-30T07:32:37.172Z,5.14
2018-04-30T07:33:37.594Z,5.19
2018-04-30T07:34:38.066Z,5.24
2018-04-30T07:35:38.535Z,5.29
2018-04-30T07:36:39.006Z,5.34
2018-04-30T07:37:39.477Z,5.41
2018-04-30T07:38:39.948Z,5.48
2018-04-30T07:39:40.420Z,5.54
2018-04-30T07:40:40.890Z,5.60
2018-04-30T07:41:41.362Z,5.66
2018-04-30T07:42:41.883Z,5.74
2018-04-30T07:43:42.304Z,5.80
2018-04-30T07:44:42.776Z,5.87
2018-04-30T07:45:43.250Z,5.94
2018-04-30T07:46:43.721Z,6.02
2018-04-30T07:47:44.246Z,6.08
2018-04-30T07:48:44.664Z,6.14
2018-04-30T07:49:45.137Z,6.22
2018-04-30T07:50:45.608Z,6.27
2018-04-30T07:51:46.081Z,6.35
2018-04-30T07:52:46.555Z,6.42
2018-04-30T07:53:47.027Z,6.48
2018-04-30T07:54:47.503Z,6.56
2018-04-30T07:55:47.972Z,6.63
2018-04-30T07:56:48.447Z,6.70
2018-04-30T07:57:49.260Z,6.77
2018-04-30T07:58:49.394Z,6.83
2018-04-30T07:59:50.207Z,6.90
2018-04-30T08:00:50.340Z,6.97
2018-04-30T08:01:50.821Z,7.02
2018-04-30T08:02:51.289Z,7.08
2018-04-30T08:03:51.763Z,7.13
2018-04-30T08:04:52.237Z,7.18
2018-04-30T08:05:52.712Z,7.24
2018-04-30T08:06:53.187Z,7.28
2018-04-30T08:07:53.661Z,7.34
2018-04-30T08:08:54.136Z,7.37
2018-04-30T08:09:54.691Z,7.41
2018-04-30T08:10:55.087Z,7.44
2018-04-30T08:11:55.560Z,7.48
2018-04-30T08:12:56.036Z,7.53
2018-04-30T08:13:56.852Z,7.56
2018-04-30T08:14:57.033Z,7.60
2018-04-30T08:15:57.461Z,7.62
2018-04-30T08:16:57.938Z,7.65
2018-04-30T08:17:58.412Z,7.69
2018-04-30T08:18:58.887Z,7.72
2018-04-30T08:19:59.361Z,7.74
2018-04-30T08:20:59.874Z,7.78
2018-04-30T08:22:00.312Z,7.79
2018-04-30T08:23:00.824Z,7.82
2018-04-30T08:24:01.261Z,7.86
2018-04-30T08:25:01.735Z,7.85
2018-04-30T08:26:02.211Z,7.90
2018-04-30T08:27:02.684Z,7.92
2018-04-30T08:28:03.158Z,7.92
2018-04-30T08:29:03.633Z,7.95
2018-04-30T08:30:04.107Z,7.95
2018-04-30T08:31:04.582Z,7.98
2018-04-30T08:32:05.052Z,8.04
2018-04-30T08:33:05.529Z,8.06
2018-04-30T08:34:05.996Z,8.08
2018-04-30T08:35:06.471Z,8.12
2018-04-30T08:36:06.943Z,8.13
2018-04-30T08:37:07.413Z,8.16
2018-04-30T08:38:07.886Z,8.18
2018-04-30T08:39:08.357Z,8.20
2018-04-30T08:40:08.829Z,8.24
2018-04-30T08:41:09.302Z,8.28
2018-04-30T08:42:09.777Z,8.32
2018-04-30T08:43:10.244Z,8.34
2018-04-30T08:44:10.714Z,8.36
2018-04-30T08:45:11.197Z,8.42
2018-04-30T08:46:11.659Z,8.48
2018-04-30T08:47:12.129Z,8.52
2018-04-30T08:48:12.600Z,8.60
2018-04-30T08:49:13.071Z,8.66
2018-04-30T08:50:13.542Z,8.74
2018-04-30T08:51:14.017Z,8.83
2018-04-30T08:52:14.523Z,8.92
2018-04-30T08:53:14.958Z,9.04
2018-04-30T08:54:15.430Z,9.14
2018-04-30T08:55:15.901Z,9.24
2018-04-30T08:56:16.372Z,9.33
2018-04-30T08:57:16.845Z,9.41
2018-04-30T08:58:17.316Z,9.52
2018-04-30T08:59:17.789Z,9.62
2018-04-30T09:00:18.654Z,9.73
2018-04-30T09:01:18.733Z,9.81
2018-04-30T09:02:19.206Z,9.88
2018-04-30T09:03:19.682Z,9.96
2018-04-30T09:04:20.151Z,10.02
2018-04-30T09:05:20.625Z,10.08
2018-04-30T09:06:21.100Z,10.13
2018-04-30T09:07:21.572Z,10.20
2018-04-30T09:08:22.050Z,10.27
2018-04-30T09:09:22.518Z,10.34
2018-04-30T09:10:22.991Z,10.40
2018-04-30T09:11:23.467Z,10.46
2018-04-30T09:12:23.942Z,10.50
2018-04-30T09:13:24.414Z,10.55
2018-04-30T09:14:24.889Z,10.58
2018-04-30T09:15:25.364Z,10.61
2018-04-30T09:16:25.838Z,10.62
2018-04-30T09:17:26.653Z,10.64
2018-04-30T09:18:26.792Z,10.64
2018-04-30T09:19:27.264Z,10.65
2018-04-30T09:20:27.738Z,10.66
2018-04-30T09:21:28.213Z,10.66
2018-04-30T09:22:28.688Z,10.67
2018-04-30T09:23:29.167Z,10.69
2018-04-30T09:24:29.644Z,10.68
2018-04-30T09:25:30.115Z,10.68
2018-04-30T09:26:30.590Z,10.66
2018-04-30T09:27:31.070Z,10.70
2018-04-30T09:28:31.541Z,10.72
2018-04-30T09:29:32.015Z,10.72
2018-04-30T09:30:32.492Z,10.71
2018-04-30T09:31:32.968Z,10.74
2018-04-30T09:32:33.440Z,10.76
2018-04-30T09:33:33.915Z,10.78
2018-04-30T09:34:34.393Z,10.81
2018-04-30T09:35:34.871Z,10.82
2018-04-30T09:36:35.339Z,10.84
2018-04-30T09:37:35.815Z,10.85
2018-04-30T09:38:36.287Z,10.86
2018-04-30T09:39:36.762Z,10.87
2018-04-30T09:40:37.234Z,10.90
2018-04-30T09:41:37.744Z,10.92
2018-04-30T09:42:38.185Z,10.94
2018-04-30T09:43:38.705Z,10.94
2018-04-30T09:44:39.127Z,10.96
2018-04-30T09:45:39.600Z,10.97
2018-04-30T09:46:40.074Z,10.97
2018-04-30T09:47:40.548Z,10.98
2018-04-30T09:48:41.017Z,10.97
2018-04-30T09:49:41.489Z,10.98
2018-04-30T09:50:41.963Z,10.98
2018-04-30T09:51:42.434Z,10.98
2018-04-30T09:52:42.905Z,10.97
2018-04-30T09:53:43.430Z,10.96
2018-04-30T09:54:43.849Z,10.95
2018-04-30T09:55:44.324Z,10.96
2018-04-30T09:56:44.794Z,10.95
2018-04-30T09:57:45.722Z,10.96
2018-04-30T09:58:45.737Z,10.94
2018-04-30T09:59:46.213Z,10.94
2018-04-30T10:00:47.019Z,10.95
2018-04-30T10:01:47.150Z,10.94
2018-04-30T10:02:47.623Z,10.93
2018-04-30T10:03:48.095Z,10.92
2018-04-30T10:04:48.566Z,10.92
2018-04-30T10:05:49.038Z,10.90
2018-04-30T10:06:49.512Z,10.90
2018-04-30T10:07:49.985Z,10.90
2018-04-30T10:08:50.454Z,10.88
2018-04-30T10:09:50.928Z,10.90
2018-04-30T10:10:51.399Z,10.89
2018-04-30T10:11:51.873Z,10.89
2018-04-30T10:12:52.347Z,10.88
2018-04-30T10:13:52.823Z,10.89
2018-04-30T10:14:53.292Z,10.88
2018-04-30T10:15:53.768Z,10.89
2018-04-30T10:16:54.241Z,10.88
2018-04-30T10:17:54.712Z,10.90
2018-04-30T10:18:55.185Z,10.88
2018-04-30T10:19:55.660Z,10.88
2018-04-30T10:20:56.135Z,10.88
2018-04-30T10:21:56.607Z,10.89
2018-04-30T10:22:57.085Z,10.90
2018-04-30T10:23:57.612Z,10.89
2018-04-30T10:24:58.032Z,10.90
2018-04-30T10:25:58.510Z,10.91
2018-04-30T10:26:58.984Z,10.92
2018-04-30T10:27:59.461Z,10.94
2018-04-30T10:29:00.004Z,10.96
2018-04-30T10:30:00.412Z,10.97
2018-04-30T10:31:00.890Z,10.97
2018-04-30T10:32:01.363Z,10.98
2018-04-30T10:33:01.838Z,10.98
2018-04-30T10:34:02.365Z,10.99
2018-04-30T10:35:02.789Z,11.00
2018-04-30T10:36:03.268Z,11.00
2018-04-30T10:37:03.944Z,11.04
2018-04-30T10:38:04.226Z,11.04
2018-04-30T10:39:04.692Z,11.04
2018-04-30T10:40:05.168Z,11.05
2018-04-30T10:41:05.644Z,11.05
2018-04-30T10:42:06.119Z,11.05
2018-04-30T10:43:06.597Z,11.06
2018-04-30T10:44:07.068Z,11.07
2018-04-30T10:45:07.547Z,11.08
2018-04-30T10:46:08.130Z,11.08
2018-04-30T10:47:08.491Z,11.08
2018-04-30T10:48:08.966Z,11.09
2018-04-30T10:49:09.442Z,11.10
2018-04-30T10:50:09.914Z,11.10
2018-04-30T10:51:10.388Z,11.12
2018-04-30T10:52:10.859Z,11.12
2018-04-30T10:53:11.335Z,11.12
2018-04-30T10:54:11.807Z,11.12
2018-04-30T10:55:12.279Z,11.12
2018-04-30T10:56:12.752Z,11.12
2018-04-30T10:57:13.226Z,11.13
2018-04-30T10:58:13.700Z,11.12
2018-04-30T10:59:14.223Z,11.13
2018-04-30T11:00:14.645Z,11.14
2018-04-30T11:01:15.117Z,11.14
2018-04-30T11:02:15.588Z,11.16
2018-04-30T11:03:16.060Z,11.16
2018-04-30T11:04:16.582Z,11.16
2018-04-30T11:05:17.004Z,11.16
2018-04-30T11:06:17.475Z,11.17
2018-04-30T11:07:17.946Z,11.18
2018-04-30T11:08:18.419Z,11.18
2018-04-30T11:10:19.365Z,11.18
2018-04-30T11:11:19.833Z,11.19
2018-04-30T11:12:20.387Z,11.20
2018-04-30T11:13:20.776Z,11.19
2018-04-30T11:14:21.248Z,11.20
2018-04-30T11:15:21.721Z,11.20
2018-04-30T11:16:22.192Z,11.21
2018-04-30T11:17:22.664Z,11.20
2018-04-30T11:18:23.139Z,11.20
2018-04-30T11:19:23.611Z,11.22
2018-04-30T11:20:24.082Z,11.20
2018-04-30T11:21:24.556Z,11.22
2018-04-30T11:22:25.028Z,11.22
2018-04-30T11:23:25.499Z,11.22
2018-04-30T11:24:26.024Z,11.22
2018-04-30T11:25:26.447Z,11.23
2018-04-30T11:26:26.920Z,11.22
2018-04-30T11:27:27.394Z,11.23
2018-04-30T11:28:27.867Z,11.24
2018-04-30T11:29:28.340Z,11.25
2018-04-30T11:30:28.815Z,11.26
2018-04-30T11:31:29.289Z,11.26
2018-04-30T11:32:29.763Z,11.28
2018-04-30T11:33:30.240Z,11.28
2018-04-30T11:34:30.764Z,11.30
2018-04-30T11:35:31.189Z,11.32
2018-04-30T11:36:31.662Z,11.32
2018-04-30T11:37:32.139Z,11.34
2018-04-30T11:38:32.613Z,11.34
2018-04-30T11:39:33.089Z,11.36
2018-04-30T11:40:33.564Z,11.38
2018-04-30T11:41:34.040Z,11.38
2018-04-30T11:42:34.536Z,11.39
2018-04-30T11:43:34.991Z,11.40
2018-04-30T11:44:35.467Z,11.43
2018-04-30T11:45:35.943Z,11.44
2018-04-30T11:46:36.418Z,11.45
2018-04-30T11:47:36.897Z,11.45
2018-04-30T11:48:37.370Z,11.48
2018-04-30T11:49:37.843Z,11.49
2018-04-30T11:50:38.317Z,11.51
2018-04-30T11:51:38.795Z,11.52
2018-04-30T11:52:39.271Z,11.54
2018-04-30T11:53:39.745Z,11.55
2018-04-30T11:54:40.221Z,11.58
2018-04-30T11:55:40.694Z,11.60
2018-04-30T11:56:41.169Z,11.62
2018-04-30T11:57:41.643Z,11.62
2018-04-30T11:58:42.147Z,11.64
2018-04-30T11:59:42.591Z,11.66
2018-04-30T12:00:43.269Z,11.68
2018-04-30T12:01:43.538Z,11.70
2018-04-30T12:02:44.012Z,11.71
2018-04-30T12:03:44.486Z,11.72
2018-04-30T12:04:44.960Z,11.74
2018-04-30T12:05:45.434Z,11.76
2018-04-30T12:06:45.907Z,11.78
2018-04-30T12:07:46.381Z,11.78
2018-04-30T12:08:46.852Z,11.82
2018-04-30T12:09:47.324Z,11.84
2018-04-30T12:10:47.798Z,11.86
2018-04-30T12:12:48.744Z,11.90
2018-04-30T12:13:49.213Z,11.92
2018-04-30T12:14:49.686Z,11.93
2018-04-30T12:15:50.159Z,11.95
2018-04-30T12:16:50.630Z,11.98
2018-04-30T12:17:51.126Z,12.00
2018-04-30T12:18:51.576Z,12.02
2018-04-30T12:19:52.043Z,12.04
2018-04-30T12:20:52.517Z,12.06
2018-04-30T12:21:52.994Z,12.08
2018-04-30T12:22:53.459Z,12.10
2018-04-30T12:23:53.933Z,12.11
2018-04-30T12:24:54.407Z,12.13
2018-04-30T12:25:54.876Z,12.15
2018-04-30T12:26:55.349Z,12.18
2018-04-30T12:27:55.821Z,12.20
2018-04-30T12:28:56.294Z,12.22
2018-04-30T12:29:56.765Z,12.25
2018-04-30T12:30:57.239Z,12.27
2018-04-30T12:31:57.713Z,12.29
2018-04-30T12:32:58.187Z,12.31
2018-04-30T12:33:58.658Z,12.34
2018-04-30T12:34:59.131Z,12.35
2018-04-30T12:35:59.637Z,12.37
2018-04-30T12:37:00.080Z,12.40
2018-04-30T12:38:00.892Z,12.40
2018-04-30T12:39:01.027Z,12.42
2018-04-30T12:40:01.503Z,12.44
2018-04-30T12:41:01.977Z,12.46
2018-04-30T12:42:02.451Z,12.50
2018-04-30T12:43:02.925Z,12.51
2018-04-30T12:44:03.399Z,12.52
2018-04-30T12:45:03.875Z,12.56
2018-04-30T12:46:04.354Z,12.57
2018-04-30T12:47:04.827Z,12.59
2018-04-30T12:48:05.304Z,12.61
2018-04-30T12:49:05.779Z,12.63
2018-04-30T12:50:06.255Z,12.66
2018-04-30T12:51:06.729Z,12.68
2018-04-30T12:52:07.208Z,12.68
2018-04-30T12:53:07.681Z,12.71
2018-04-30T12:54:08.156Z,12.72
2018-04-30T12:55:08.632Z,12.74
2018-04-30T12:56:09.110Z,12.77
2018-04-30T12:57:09.584Z,12.78
2018-04-30T12:58:10.059Z,12.80
2018-04-30T12:59:10.537Z,12.82
2018-04-30T13:00:11.063Z,12.84
2018-04-30T13:01:11.487Z,12.85
2018-04-30T13:02:11.962Z,12.87
2018-04-30T13:03:12.438Z,12.90
2018-04-30T13:04:12.916Z,12.93
2018-04-30T13:05:13.390Z,12.94
2018-04-30T13:06:13.864Z,12.95
2018-04-30T13:07:14.338Z,12.99
2018-04-30T13:08:14.815Z,13.00
2018-04-30T13:09:15.286Z,13.01
2018-04-30T13:10:15.759Z,13.04
2018-04-30T13:11:16.237Z,13.05
2018-04-30T13:12:16.710Z,13.08
2018-04-30T13:13:17.183Z,13.08
2018-04-30T13:14:17.656Z,13.10
2018-04-30T13:15:18.186Z,13.11
2018-04-30T13:16:18.603Z,13.13
2018-04-30T13:17:19.077Z,13.14
2018-04-30T13:18:19.549Z,13.16
2018-04-30T13:19:20.023Z,13.17
2018-04-30T13:20:20.496Z,13.19
2018-04-30T13:21:20.969Z,13.20
2018-04-30T13:22:21.441Z,13.22
2018-04-30T13:23:21.915Z,13.24
2018-04-30T13:24:22.386Z,13.24